Time;durP1;ratioP1;P1;durP2;ratioP2;P2;SDS_P1;SDS_P2;PMS_P1;PMS_P2;Temp;Humidity;BMP_temperature;BMP_pressure;BME280_temperature;BME280_humidity;BME280_pressure;Samples;Min_cycle;Max_cycle;Signal;HPM_P1;HPM_P2
2023/05/29 13:37:38;;;;;;;4.47;2.80;;;26.80;55.70;;;;;;5007430;27;20163;-64
2023/05/29 13:40:05;;;;;;;4.63;2.88;;;26.40;55.50;;;;;;5007560;28;20504;-64
2023/05/29 13:42:30;;;;;;;4.82;3.38;;;26.40;55.70;;;;;;4998020;28;20109;-65
2023/05/29 13:44:56;;;;;;;;;;;26.50;55.60;;;;;;4987141;28;20097;-65
2023/05/29 13:47:21;;;;;;;4.07;2.80;;;26.50;55.60;;;;;;4986174;28;19906;-65
2023/05/29 13:49:47;;;;;;;;;;;26.60;55.80;;;;;;4987746;28;20038;-65
2023/05/29 13:52:13;;;;;;;6.97;3.00;;;26.60;56.00;;;;;;4986181;28;19912;-65
2023/05/29 13:54:38;;;;;;;8.00;3.05;;;26.70;56.30;;;;;;4986010;28;20523;-66
2023/05/29 13:57:05;;;;;;;5.05;2.92;;;26.70;55.90;;;;;;4985637;28;20033;-65
2023/05/29 13:59:32;;;;;;;5.32;2.50;;;26.80;55.30;;;;;;4986246;28;20022;-65
2023/05/29 14:01:58;;;;;;;5.55;2.78;;;26.80;54.10;;;;;;4986340;28;20027;-65
2023/05/29 14:04:23;;;;;;;;;;;26.90;54.40;;;;;;4987965;28;20019;-65
2023/05/29 14:06:50;;;;;;;5.25;2.90;;;26.80;54.90;;;;;;4987565;28;19913;-65
2023/05/29 14:09:15;;;;;;;5.20;2.90;;;26.90;55.10;;;;;;4987841;28;20050;-64
2023/05/29 14:11:41;;;;;;;;;;;26.90;55.00;;;;;;4987904;28;20062;-64
2023/05/29 14:14:07;;;;;;;3.75;2.70;;;26.80;54.20;;;;;;4987651;28;19906;-64
2023/05/29 14:16:33;;;;;;;6.68;3.15;;;26.70;54.20;;;;;;4986377;28;20550;-64
2023/05/29 14:18:59;;;;;;;6.70;3.03;;;26.70;55.10;;;;;;4986353;28;20506;-64
2023/05/29 14:21:25;;;;;;;5.75;2.80;;;26.80;55.50;;;;;;4986179;28;20027;-64
2023/05/29 14:23:51;;;;;;;;;;;26.90;55.50;;;;;;4986449;28;20137;-64
2023/05/29 14:26:16;;;;;;;5.00;3.08;;;26.90;55.80;;;;;;4985835;28;19918;-65
2023/05/29 14:28:42;;;;;;;6.13;2.67;;;27.00;55.90;;;;;;4987659;28;20588;-65
2023/05/29 14:31:08;;;;;;;7.10;2.85;;;27.10;55.70;;;;;;4987472;28;20019;-65
2023/05/29 14:33:33;;;;;;;4.15;2.65;;;27.20;55.80;;;;;;4987134;28;20038;-65
2023/05/29 14:35:59;;;;;;;5.05;3.03;;;27.10;55.60;;;;;;4986939;28;20026;-64
2023/05/29 14:38:25;;;;;;;4.25;2.47;;;27.10;56.00;;;;;;4987295;28;20411;-65
2023/05/29 14:40:51;;;;;;;7.15;2.90;;;27.20;56.10;;;;;;4985755;28;20491;-65
2023/05/29 14:43:17;;;;;;;3.75;2.50;;;27.20;55.60;;;;;;4985513;28;20062;-64
2023/05/29 14:45:42;;;;;;;8.90;2.90;;;27.20;56.00;;;;;;4986798;28;20026;-64
2023/05/29 14:48:08;;;;;;;4.05;2.65;;;27.30;55.60;;;;;;4978524;28;20027;-64
2023/05/29 14:50:33;;;;;;;6.57;3.10;;;27.30;55.70;;;;;;4972747;28;20072;-65
2023/05/29 14:52:59;;;;;;;7.22;2.60;;;27.10;55.50;;;;;;4973854;28;20379;-65
2023/05/29 14:55:24;;;;;;;8.32;3.00;;;27.10;55.50;;;;;;4974121;28;20027;-65
2023/05/29 14:57:50;;;;;;;6.80;3.17;;;27.10;55.90;;;;;;4972475;28;20156;-65
2023/05/29 15:00:16;;;;;;;5.18;2.80;;;27.00;55.60;;;;;;4973947;28;20108;-65
2023/05/29 15:02:42;;;;;;;3.85;2.53;;;26.90;55.40;;;;;;4973855;28;20027;-65
2023/05/29 15:05:08;;;;;;;4.90;2.92;;;26.80;55.90;;;;;;4972515;28;20119;-65
2023/05/29 15:07:34;;;;;;;7.45;3.17;;;26.80;55.70;;;;;;4981321;28;20034;-65
2023/05/29 15:10:00;;;;;;;3.88;2.63;;;26.90;55.90;;;;;;5004440;28;20027;-64
2023/05/29 15:12:26;;;;;;;5.22;2.80;;;26.90;55.30;;;;;;4976299;28;20026;-64
2023/05/29 15:14:51;;;;;;;4.35;2.63;;;26.80;54.90;;;;;;4992866;28;20483;-65
2023/05/29 15:17:18;;;;;;;6.72;3.00;;;26.90;54.40;;;;;;4992822;28;20057;-66
2023/05/29 15:19:44;;;;;;;6.07;2.90;;;26.80;54.40;;;;;;5025078;28;20099;-64
2023/05/29 15:22:09;;;;;;;;;;;26.70;55.00;;;;;;5067329;28;20053;-65
2023/05/29 15:24:35;;;;;;;3.60;3.03;;;26.80;55.20;;;;;;5054360;28;19911;-64
2023/05/29 15:27:02;;;;;;;3.97;2.97;;;26.80;54.80;;;;;;5028991;28;20037;-64
2023/05/29 15:29:33;;;;;;;4.78;2.70;;;26.80;54.90;;;;;;5079808;28;20035;-64
2023/05/29 15:31:58;;;;;;;4.38;2.78;;;26.80;55.30;;;;;;5034129;28;20461;-64
2023/05/29 15:34:24;;;;;;;;;;;26.70;54.90;;;;;;5058856;28;20026;-63
2023/05/29 15:36:50;;;;;;;4.45;2.90;;;26.70;55.50;;;;;;5011911;28;19996;-67
2023/05/29 15:39:15;;;;;;;;;;;26.70;55.00;;;;;;5012557;28;20097;-68
2023/05/29 15:41:41;;;;;;;5.53;2.53;;;26.80;55.60;;;;;;5022322;28;20304;-65
2023/05/29 15:44:06;;;;;;;7.00;3.00;;;26.80;55.90;;;;;;5067369;28;20384;-64
2023/05/29 15:46:32;;;;;;;4.03;2.72;;;26.70;56.10;;;;;;4998005;28;20030;-66
2023/05/29 15:48:58;;;;;;;4.30;2.58;;;26.70;56.20;;;;;;5051628;28;20024;-64
2023/05/29 15:51:23;;;;;;;7.00;2.75;;;26.70;56.50;;;;;;5094664;28;20487;-64
2023/05/29 15:53:48;;;;;;;4.15;2.80;;;26.70;56.10;;;;;;5026193;28;20452;-64
2023/05/29 15:56:14;;;;;;;5.70;2.50;;;26.60;55.50;;;;;;5048698;28;20026;-64
2023/05/29 15:58:40;;;;;;;4.38;2.40;;;26.60;55.90;;;;;;5040620;28;20028;-65
2023/05/29 16:01:05;;;;;;;4.95;2.75;;;26.50;55.70;;;;;;5050176;28;20026;-65
2023/05/29 16:03:31;;;;;;;3.90;2.65;;;26.40;56.00;;;;;;4983213;28;20066;-64
2023/05/29 16:05:57;;;;;;;4.47;2.78;;;26.60;56.60;;;;;;4971437;28;20072;-65
2023/05/29 16:08:24;;;;;;;;;;;26.60;56.20;;;;;;4978696;28;20046;-68
2023/05/29 16:10:50;;;;;;;5.15;2.70;;;26.50;55.30;;;;;;4977043;28;19917;-68
2023/05/29 16:13:15;;;;;;;;;;;26.40;55.00;;;;;;4973183;28;20022;-65
2023/05/29 16:15:41;;;;;;;5.95;3.55;;;26.30;55.30;;;;;;4983686;28;20361;-67
2023/05/29 16:18:07;;;;;;;4.05;2.53;;;26.30;55.30;;;;;;5008791;28;20036;-67
2023/05/29 16:20:32;;;;;;;6.57;2.78;;;26.30;55.60;;;;;;4998505;28;20026;-68
2023/05/29 16:22:58;;;;;;;3.70;2.70;;;26.30;56.00;;;;;;4992032;28;20088;-66
2023/05/29 16:25:23;;;;;;;4.43;2.58;;;26.20;56.10;;;;;;4990881;28;20026;-69
2023/05/29 16:27:49;;;;;;;;;;;26.20;56.40;;;;;;4981908;28;20031;-70
2023/05/29 16:30:15;;;;;;;4.60;3.33;;;26.20;56.50;;;;;;4989960;28;19968;-70
2023/05/29 16:32:40;;;;;;;;;;;26.20;55.20;;;;;;4973921;28;20030;-70
2023/05/29 16:35:06;;;;;;;6.85;3.58;;;26.20;55.00;;;;;;4973041;28;19910;-69
2023/05/29 16:37:32;;;;;;;;;;;26.20;55.30;;;;;;4973941;28;20114;-69
2023/05/29 16:39:58;;;;;;;4.07;2.78;;;26.20;55.00;;;;;;4973855;28;20328;-70
2023/05/29 16:42:23;;;;;;;8.50;2.50;;;26.20;55.10;;;;;;4972636;28;20027;-70
2023/05/29 16:44:49;;;;;;;;;;;26.10;55.10;;;;;;4973578;28;20033;-70
2023/05/29 16:47:15;;;;;;;6.03;2.97;;;26.10;55.30;;;;;;4972916;28;19906;-69
2023/05/29 16:49:41;;;;;;;5.50;3.65;;;26.00;55.10;;;;;;4973098;28;20088;-70
2023/05/29 16:52:08;;;;;;;7.40;3.83;;;25.90;55.50;;;;;;4983602;28;20139;-69
2023/05/29 16:54:38;;;;;;;7.32;3.35;;;25.90;55.90;;;;;;4977248;28;20499;-69
2023/05/29 16:57:05;;;;;;;4.32;3.17;;;25.90;56.00;;;;;;4981257;28;20479;-69
2023/05/29 16:59:31;;;;;;;9.82;6.95;;;25.90;55.90;;;;;;4977746;28;20023;-69
2023/05/29 17:01:56;;;;;;;;;;;25.90;55.70;;;;;;4989781;28;20049;-69
2023/05/29 17:04:22;;;;;;;8.80;3.67;;;25.90;55.90;;;;;;4991642;28;19909;-69
2023/05/29 17:06:47;;;;;;;;;;;25.90;56.10;;;;;;4992186;28;20023;-70
2023/05/29 17:09:13;;;;;;;6.15;4.22;;;25.90;56.10;;;;;;4991686;28;19905;-69
2023/05/29 17:11:38;;;;;;;;;;;25.80;56.30;;;;;;4991458;28;20034;-69
2023/05/29 17:14:04;;;;;;;7.97;5.72;;;25.80;56.60;;;;;;4989906;28;19971;-70
2023/05/29 17:16:29;;;;;;;;;;;25.70;56.70;;;;;;4990600;28;20022;-70
2023/05/29 17:18:55;;;;;;;;;;;25.70;56.70;;;;;;4991676;28;19906;-71
2023/05/29 17:21:20;;;;;;;;;;;25.70;57.00;;;;;;5091009;28;19908;-70
2023/05/29 17:23:46;;;;;;;;;;;25.70;56.90;;;;;;5092692;28;20006;-71
2023/05/29 17:26:12;;;;;;;;;;;25.60;57.10;;;;;;5043305;28;20033;-71
2023/05/29 17:28:37;;;;;;;;;;;25.60;57.00;;;;;;4972291;28;19906;-71
2023/05/29 17:31:03;;;;;;;;;;;25.60;57.20;;;;;;4971193;28;19906;-71
2023/05/29 17:33:28;;;;;;;;;;;25.50;57.30;;;;;;4972866;28;19910;-70
2023/05/29 17:35:54;;;;;;;;;;;25.50;57.40;;;;;;4976030;28;19918;-71
2023/05/29 17:38:20;;;;;;;;;;;25.40;57.40;;;;;;4974976;28;19997;-69
2023/05/29 17:40:46;;;;;;;;;;;25.40;57.60;;;;;;4975780;28;19906;-71
2023/05/29 17:43:11;;;;;;;;;;;25.40;57.70;;;;;;4975444;28;20414;-71
2023/05/29 17:45:36;;;;;;;;;;;25.40;57.90;;;;;;4973800;28;19906;-69
2023/05/29 17:48:02;;;;;;;;;;;25.40;57.90;;;;;;4972721;28;19906;-69
2023/05/29 17:50:27;;;;;;;;;;;25.40;58.10;;;;;;4973182;28;20044;-70
2023/05/29 17:52:53;;;;;;;;;;;25.30;58.20;;;;;;5002343;28;20260;-68
2023/05/29 17:55:18;;;;;;;;;;;25.30;58.10;;;;;;5080639;28;19920;-70
2023/05/29 17:57:44;;;;;;;;;;;25.20;58.40;;;;;;4986124;28;19913;-69
2023/05/29 18:00:10;;;;;;;;;;;25.20;58.60;;;;;;5053152;28;19907;-70
2023/05/29 18:02:36;;;;;;;;;;;25.20;58.50;;;;;;5018173;28;20320;-71
2023/05/29 18:05:01;;;;;;;;;;;25.10;58.70;;;;;;5079165;28;19905;-70
2023/05/29 18:07:27;;;;;;;;;;;25.10;58.80;;;;;;5009637;28;19905;-70
2023/05/29 18:09:52;;;;;;;;;;;25.00;58.80;;;;;;5042928;28;19904;-69
2023/05/29 18:12:18;;;;;;;;;;;25.00;58.90;;;;;;5093320;28;19908;-69
2023/05/29 18:14:44;;;;;;;;;;;25.00;58.90;;;;;;5091989;28;19919;-69
2023/05/29 18:17:09;;;;;;;;;;;24.90;59.20;;;;;;5093301;28;20395;-71
2023/05/29 18:19:35;;;;;;;;;;;24.90;59.50;;;;;;5093295;28;19911;-70
2023/05/29 18:22:01;;;;;;;;;;;24.90;59.60;;;;;;5093548;28;19904;-70
2023/05/29 18:24:27;;;;;;;;;;;24.90;59.90;;;;;;5097027;28;20269;-70
2023/05/29 18:26:52;;;;;;;;;;;24.80;60.00;;;;;;5095553;28;19949;-69
2023/05/29 18:29:17;;;;;;;;;;;24.80;60.30;;;;;;5083326;28;19904;-70
2023/05/29 18:31:43;;;;;;;;;;;24.70;60.50;;;;;;4987887;28;19952;-71
2023/05/29 18:34:08;;;;;;;;;;;24.70;60.70;;;;;;4994193;28;19913;-71
2023/05/29 18:36:35;;;;;;;;;;;24.60;61.10;;;;;;4994110;28;19957;-70
2023/05/29 18:39:00;;;;;;;;;;;24.50;61.20;;;;;;4994790;28;19945;-70
2023/05/29 18:41:26;;;;;;;;;;;24.50;61.50;;;;;;4993078;28;20360;-70
2023/05/29 18:43:52;;;;;;;;;;;24.40;61.60;;;;;;4994093;28;19906;-71
2023/05/29 18:46:17;;;;;;;;;;;24.30;61.90;;;;;;4994005;28;19910;-69
2023/05/29 18:48:43;;;;;;;;;;;24.30;62.20;;;;;;4988396;28;19996;-70
2023/05/29 18:51:10;;;;;;;;;;;24.20;62.50;;;;;;4974475;28;19959;-70
2023/05/29 18:53:35;;;;;;;;;;;24.10;63.10;;;;;;4974269;28;19906;-70
2023/05/29 18:56:01;;;;;;;;;;;23.90;63.30;;;;;;4974014;28;20309;-70
2023/05/29 18:58:26;;;;;;;;;;;23.90;63.60;;;;;;4972704;28;20310;-69
2023/05/29 19:00:52;;;;;;;;;;;23.70;64.10;;;;;;4974892;28;20251;-69
2023/05/29 19:03:17;;;;;;;;;;;23.70;64.50;;;;;;4973945;28;20332;-70
2023/05/29 19:05:43;;;;;;;;;;;23.60;64.50;;;;;;4973878;28;19977;-69
2023/05/29 19:08:10;;;;;;;;;;;23.60;64.90;;;;;;4974686;28;19963;-69
2023/05/29 19:10:40;;;;;;;;;;;23.60;65.10;;;;;;4976671;28;20351;-69
2023/05/29 19:13:06;;;;;;;;;;;23.50;65.40;;;;;;4973936;28;20000;-69
2023/05/29 19:15:31;;;;;;;;;;;23.40;65.70;;;;;;4974153;28;19945;-69
2023/05/29 19:17:57;;;;;;;;;;;23.40;66.20;;;;;;4972885;28;19996;-69
2023/05/29 19:20:22;;;;;;;;;;;23.30;66.60;;;;;;4974008;28;20377;-69
2023/05/29 19:22:51;;;;;;;;;;;23.20;66.90;;;;;;4973771;28;19929;-70
2023/05/29 19:25:17;;;;;;;;;;;23.10;67.20;;;;;;4973876;28;19906;-70
2023/05/29 19:27:43;;;;;;;;;;;23.10;67.50;;;;;;4973525;28;19913;-69
2023/05/29 19:30:08;;;;;;;;;;;23.00;67.90;;;;;;4972617;28;19906;-70
2023/05/29 19:32:34;;;;;;;;;;;23.00;67.80;;;;;;4973699;28;19906;-70
2023/05/29 19:35:00;;;;;;;;;;;23.00;68.00;;;;;;4973587;28;19906;-70
2023/05/29 19:37:25;;;;;;;;;;;22.90;68.10;;;;;;4972189;28;20279;-70
2023/05/29 19:39:55;;;;;;;;;;;22.80;68.30;;;;;;4973778;28;19906;-70
2023/05/29 19:42:23;;;;;;;;;;;22.70;68.60;;;;;;4972129;28;19906;-69
2023/05/29 19:44:49;;;;;;;;;;;22.70;68.70;;;;;;4972223;28;19910;-69
2023/05/29 19:47:15;;;;;;;;;;;22.60;68.80;;;;;;4974788;28;20005;-69
2023/05/29 19:49:42;;;;;;;;;;;22.60;69.20;;;;;;4989947;28;19963;-69
2023/05/29 19:52:09;;;;;;;;;;;22.50;69.10;;;;;;4978685;28;19916;-70
2023/05/29 19:54:35;;;;;;;;;;;22.50;69.30;;;;;;4971478;28;19992;-70
2023/05/29 19:57:01;;;;;;;;;;;22.40;69.40;;;;;;4974187;28;20008;-69
2023/05/29 19:59:26;;;;;;;;;;;22.40;69.60;;;;;;4972551;28;20009;-71
2023/05/29 20:01:52;;;;;;;;;;;22.30;69.70;;;;;;4971728;28;20338;-71
2023/05/29 20:04:18;;;;;;;;;;;22.30;69.90;;;;;;4972232;28;19906;-70
2023/05/29 20:06:44;;;;;;;;;;;22.20;70.00;;;;;;4975301;28;19917;-69
2023/05/29 20:09:09;;;;;;;;;;;22.20;70.20;;;;;;4992689;28;19906;-70
2023/05/29 20:11:35;;;;;;;;;;;22.10;70.40;;;;;;4993081;28;19928;-71
2023/05/29 20:14:00;;;;;;;;;;;22.10;70.70;;;;;;4992450;28;20251;-70
2023/05/29 20:16:27;;;;;;;;;;;22.00;70.70;;;;;;4993868;28;19929;-70
2023/05/29 20:18:52;;;;;;;;;;;22.10;70.80;;;;;;4995559;28;19905;-69
2023/05/29 20:21:18;;;;;;;;;;;22.00;71.10;;;;;;4996234;28;19912;-67
2023/05/29 20:23:44;;;;;;;;;;;21.90;71.30;;;;;;4997356;28;19986;-67
2023/05/29 20:26:09;;;;;;;;;;;21.80;71.60;;;;;;4990001;28;20008;-68
2023/05/29 20:28:35;;;;;;;;;;;21.80;71.90;;;;;;4977410;28;20390;-68
2023/05/29 20:31:01;;;;;;;;;;;21.70;72.10;;;;;;4977384;28;19906;-68
2023/05/29 20:33:26;;;;;;;;;;;21.70;72.20;;;;;;4977008;28;20425;-67
2023/05/29 20:35:52;;;;;;;;;;;21.60;72.30;;;;;;4972420;28;19914;-67
2023/05/29 20:38:17;;;;;;;;;;;21.60;72.30;;;;;;4974611;28;19945;-68
2023/05/29 20:40:45;;;;;;;;;;;21.60;72.60;;;;;;4975083;28;19913;-68
2023/05/29 20:43:11;;;;;;;;;;;21.50;72.80;;;;;;4974526;28;20349;-67
2023/05/29 20:45:38;;;;;;;;;;;21.50;73.10;;;;;;4973330;28;19916;-67
2023/05/29 20:48:05;;;;;;;;;;;21.40;73.50;;;;;;4974269;28;19957;-67
2023/05/29 20:50:31;;;;;;;;;;;21.40;73.70;;;;;;4975713;28;19946;-67
2023/05/29 20:52:56;;;;;;;;;;;21.40;74.10;;;;;;4976789;28;19906;-67
2023/05/29 20:55:22;;;;;;;;;;;21.40;74.70;;;;;;4973403;28;19906;-66
2023/05/29 20:57:47;;;;;;;;;;;21.30;74.90;;;;;;4974156;28;19932;-67
2023/05/29 21:00:13;;;;;;;;;;;21.30;75.30;;;;;;4974893;28;19906;-67
2023/05/29 21:02:40;;;;;;;;;;;21.20;75.80;;;;;;4976802;28;19990;-68
2023/05/29 21:05:07;;;;;;;;;;;21.10;76.20;;;;;;4988703;28;19906;-68
2023/05/29 21:07:36;;;;;;;;;;;21.10;76.60;;;;;;4990311;28;19906;-68
2023/05/29 21:10:06;;;;;;;;;;;21.00;76.90;;;;;;4990483;28;19907;-68
2023/05/29 21:12:32;;;;;;;;;;;21.00;77.20;;;;;;4988800;28;19907;-67
2023/05/29 21:14:57;;;;;;;;;;;21.00;77.50;;;;;;4990287;28;19932;-66
2023/05/29 21:17:23;;;;;;;;;;;20.90;77.70;;;;;;4988218;28;19917;-68
2023/05/29 21:19:48;;;;;;;;;;;20.90;77.90;;;;;;4972984;28;20329;-67
2023/05/29 21:22:14;;;;;;;;;;;20.90;78.10;;;;;;4971615;28;19928;-67
2023/05/29 21:24:40;;;;;;;;;;;20.80;78.20;;;;;;4972841;28;19910;-67
2023/05/29 21:27:06;;;;;;;;;;;20.80;78.50;;;;;;4972795;28;19913;-67
2023/05/29 21:29:32;;;;;;;;;;;20.70;78.80;;;;;;4972419;28;19975;-67
